createdAt,value
2022-11-17T00:00:37.497Z,991.19
2022-11-17T00:01:37.508Z,991.15
2022-11-17T00:02:37.556Z,991.19
2022-11-17T00:03:38.584Z,991.04
2022-11-17T00:04:37.449Z,991.04
2022-11-17T00:05:37.473Z,991.04
2022-11-17T00:06:37.417Z,990.94
2022-11-17T00:07:37.470Z,990.89
2022-11-17T00:08:37.378Z,990.90
2022-11-17T00:09:37.429Z,990.86
2022-11-17T00:10:37.347Z,990.86
2022-11-17T00:11:37.330Z,990.85
2022-11-17T00:12:37.292Z,990.82
2022-11-17T00:13:37.448Z,990.75
2022-11-17T00:14:37.307Z,990.70
2022-11-17T00:15:37.276Z,990.66
2022-11-17T00:16:37.374Z,990.65
2022-11-17T00:17:37.385Z,990.66
2022-11-17T00:18:37.342Z,990.62
2022-11-17T00:19:37.221Z,990.45
2022-11-17T00:20:37.276Z,990.45
2022-11-17T00:21:37.281Z,990.42
2022-11-17T00:22:37.197Z,990.34
2022-11-17T00:23:37.319Z,990.32
2022-11-17T00:24:37.248Z,990.26
2022-11-17T00:25:37.140Z,990.22
2022-11-17T00:26:37.134Z,990.19
2022-11-17T00:27:37.245Z,990.16
2022-11-17T00:28:37.083Z,990.14
2022-11-17T00:29:39.321Z,990.14
2022-11-17T00:30:37.055Z,990.10
2022-11-17T00:31:37.141Z,990.07
2022-11-17T00:32:37.083Z,990.02
2022-11-17T00:33:37.289Z,990.09
2022-11-17T00:34:37.007Z,990.00
2022-11-17T00:35:37.260Z,990.00
2022-11-17T00:36:36.988Z,990.01
2022-11-17T00:37:37.060Z,989.93
2022-11-17T00:38:37.008Z,989.87
2022-11-17T00:39:36.931Z,989.80
2022-11-17T00:40:36.916Z,989.78
2022-11-17T00:41:36.946Z,989.83
2022-11-17T00:42:36.910Z,989.75
2022-11-17T00:43:37.235Z,989.75
2022-11-17T00:44:36.880Z,989.69
2022-11-17T00:45:36.864Z,989.71
2022-11-17T00:46:36.841Z,989.64
2022-11-17T00:47:36.868Z,989.61
2022-11-17T00:48:36.825Z,989.68
2022-11-17T00:49:36.823Z,989.69
2022-11-17T00:50:36.783Z,989.59
2022-11-17T00:51:36.767Z,989.55
2022-11-17T00:52:36.801Z,989.62
2022-11-17T00:53:37.079Z,989.59
2022-11-17T00:54:36.902Z,989.51
2022-11-17T00:55:36.768Z,989.56
2022-11-17T00:56:36.713Z,989.50
2022-11-17T00:57:36.734Z,989.46
2022-11-17T00:58:36.737Z,989.50
2022-11-17T00:59:36.690Z,989.44
2022-11-17T01:00:36.679Z,989.54
2022-11-17T01:02:37.709Z,989.48
2022-11-17T01:03:37.728Z,989.39
2022-11-17T01:04:37.705Z,989.35
2022-11-17T01:05:37.417Z,989.38
2022-11-17T01:06:37.442Z,989.26
2022-11-17T01:07:37.500Z,989.29
2022-11-17T01:08:37.369Z,989.11
2022-11-17T01:09:37.357Z,989.17
2022-11-17T01:10:37.337Z,989.06
2022-11-17T01:11:37.349Z,989.12
2022-11-17T01:12:37.331Z,989.04
2022-11-17T01:13:37.546Z,989.02
2022-11-17T01:14:37.291Z,989.00
2022-11-17T01:15:37.348Z,988.95
2022-11-17T01:16:37.256Z,988.88
2022-11-17T01:17:37.328Z,988.98
2022-11-17T01:18:37.240Z,988.95
2022-11-17T01:19:37.242Z,989.02
2022-11-17T01:20:37.247Z,988.93
2022-11-17T01:21:37.219Z,988.96
2022-11-17T01:22:37.180Z,988.98
2022-11-17T01:23:37.380Z,988.90
2022-11-17T01:24:37.151Z,988.96
2022-11-17T01:25:37.184Z,988.99
2022-11-17T01:26:37.120Z,988.92
2022-11-17T01:27:37.187Z,988.84
2022-11-17T01:28:37.110Z,988.80
2022-11-17T01:29:37.102Z,988.93
2022-11-17T01:30:37.071Z,988.83
2022-11-17T01:31:37.042Z,988.85
2022-11-17T01:32:37.044Z,988.78
2022-11-17T01:33:37.497Z,988.79
2022-11-17T01:34:37.024Z,988.72
2022-11-17T01:35:37.045Z,988.79
2022-11-17T01:36:37.743Z,988.75
2022-11-17T01:37:36.974Z,988.83
2022-11-17T01:38:36.964Z,988.73
2022-11-17T01:39:36.986Z,988.72
2022-11-17T01:40:36.953Z,988.82
2022-11-17T01:41:36.934Z,988.79
2022-11-17T01:42:36.898Z,988.70
2022-11-17T01:43:37.277Z,988.60
2022-11-17T01:44:36.884Z,988.62
2022-11-17T01:45:36.895Z,988.54
2022-11-17T01:46:36.899Z,988.54
2022-11-17T01:47:36.855Z,988.59
2022-11-17T01:48:36.826Z,988.51
2022-11-17T01:49:36.822Z,988.45
2022-11-17T01:50:36.804Z,988.48
2022-11-17T01:51:36.797Z,988.36
2022-11-17T01:52:36.794Z,988.29
2022-11-17T01:53:37.083Z,988.27
2022-11-17T01:54:36.761Z,988.26
2022-11-17T01:55:36.767Z,988.30
2022-11-17T01:56:36.740Z,988.30
2022-11-17T01:57:36.717Z,988.24
2022-11-17T01:58:36.697Z,988.14
2022-11-17T01:59:36.698Z,988.13
2022-11-17T02:00:36.678Z,988.11
2022-11-17T02:01:36.694Z,988.12
2022-11-17T02:02:36.644Z,988.08
2022-11-17T02:03:36.963Z,988.06
2022-11-17T02:04:36.610Z,988.06
2022-11-17T02:05:36.609Z,987.97
2022-11-17T02:06:36.592Z,987.99
2022-11-17T02:07:36.656Z,988.03
2022-11-17T02:08:36.730Z,987.98
2022-11-17T02:09:36.571Z,987.77
2022-11-17T02:10:36.530Z,987.90
2022-11-17T02:11:36.527Z,987.85
2022-11-17T02:12:36.525Z,987.89
2022-11-17T02:13:36.776Z,987.84
2022-11-17T02:14:36.533Z,987.77
2022-11-17T02:15:36.466Z,987.78
2022-11-17T02:16:36.463Z,987.78
2022-11-17T02:17:36.453Z,987.85
2022-11-17T02:18:36.493Z,987.87
2022-11-17T02:19:36.422Z,987.74
2022-11-17T02:20:36.499Z,987.74
2022-11-17T02:21:36.392Z,987.79
2022-11-17T02:22:36.373Z,987.79
2022-11-17T02:23:36.690Z,987.80
2022-11-17T02:24:36.379Z,987.74
2022-11-17T02:25:36.343Z,987.74
2022-11-17T02:26:36.313Z,987.68
2022-11-17T02:27:36.312Z,987.70
2022-11-17T02:28:36.293Z,987.70
2022-11-17T02:29:36.283Z,987.65
2022-11-17T02:30:36.281Z,987.65
2022-11-17T02:31:36.264Z,987.68
2022-11-17T02:32:36.313Z,987.60
2022-11-17T02:33:36.608Z,987.63
2022-11-17T02:34:36.226Z,987.58
2022-11-17T02:35:36.224Z,987.56
2022-11-17T02:36:36.219Z,987.54
2022-11-17T02:37:36.250Z,987.54
2022-11-17T02:38:36.207Z,987.51
2022-11-17T02:39:36.155Z,987.56
2022-11-17T02:40:36.174Z,987.49
2022-11-17T02:41:36.116Z,987.51
2022-11-17T02:42:36.076Z,987.42
2022-11-17T02:43:36.506Z,987.49
2022-11-17T02:44:36.051Z,987.46
2022-11-17T02:45:36.077Z,987.48
2022-11-17T02:46:36.027Z,987.53
2022-11-17T02:47:36.055Z,987.48
2022-11-17T02:48:36.008Z,987.44
2022-11-17T02:49:35.999Z,987.39
2022-11-17T02:50:35.961Z,987.36
2022-11-17T02:51:35.996Z,987.31
2022-11-17T02:52:36.018Z,987.30
2022-11-17T02:53:36.178Z,987.39
2022-11-17T02:54:35.928Z,987.43
2022-11-17T02:55:35.919Z,987.37
2022-11-17T02:56:35.875Z,987.32
2022-11-17T02:57:35.888Z,987.47
2022-11-17T02:58:35.873Z,987.42
2022-11-17T02:59:35.880Z,987.36
2022-11-17T03:00:35.860Z,987.37
2022-11-17T03:01:35.932Z,987.38
2022-11-17T03:02:35.812Z,987.36
2022-11-17T03:03:35.989Z,987.26
2022-11-17T03:04:35.801Z,987.32
2022-11-17T03:05:35.785Z,987.31
2022-11-17T03:06:35.762Z,987.27
2022-11-17T03:07:35.819Z,987.28
2022-11-17T03:08:35.753Z,987.30
2022-11-17T03:09:35.741Z,987.15
2022-11-17T03:10:35.733Z,987.28
2022-11-17T03:11:35.711Z,987.31
2022-11-17T03:12:35.692Z,987.23
2022-11-17T03:13:36.008Z,987.25
2022-11-17T03:14:35.677Z,987.15
2022-11-17T03:15:35.673Z,987.26
2022-11-17T03:16:35.622Z,987.22
2022-11-17T03:17:35.614Z,987.18
2022-11-17T03:18:35.594Z,987.19
2022-11-17T03:19:35.574Z,987.15
2022-11-17T03:20:35.604Z,987.14
2022-11-17T03:21:35.570Z,987.16
2022-11-17T03:22:35.596Z,987.10
2022-11-17T03:23:35.743Z,987.12
2022-11-17T03:24:35.526Z,987.13
2022-11-17T03:25:35.496Z,987.10
2022-11-17T03:26:35.486Z,987.12
2022-11-17T03:27:35.491Z,987.09
2022-11-17T03:28:35.445Z,987.18
2022-11-17T03:29:35.470Z,987.17
2022-11-17T03:30:37.619Z,987.19
2022-11-17T03:31:35.422Z,987.09
2022-11-17T03:32:35.425Z,987.09
2022-11-17T03:33:35.632Z,986.97
2022-11-17T03:34:35.449Z,987.06
2022-11-17T03:35:35.365Z,986.94
2022-11-17T03:36:35.387Z,986.99
2022-11-17T03:37:35.338Z,986.97
2022-11-17T03:38:35.346Z,986.94
2022-11-17T03:39:35.307Z,987.00
2022-11-17T03:40:35.309Z,986.92
2022-11-17T03:41:35.316Z,986.93
2022-11-17T03:42:35.268Z,986.99
2022-11-17T03:43:35.530Z,986.94
2022-11-17T03:44:35.242Z,986.99
2022-11-17T03:45:35.261Z,986.95
2022-11-17T03:46:35.318Z,986.92
2022-11-17T03:47:35.208Z,986.88
2022-11-17T03:48:35.213Z,986.79
2022-11-17T03:49:35.209Z,986.78
2022-11-17T03:50:35.201Z,986.73
2022-11-17T03:51:35.200Z,986.71
2022-11-17T03:52:35.155Z,986.70
2022-11-17T03:53:35.434Z,986.68
2022-11-17T03:54:35.114Z,986.59
2022-11-17T03:55:35.103Z,986.68
2022-11-17T03:56:35.106Z,986.53
2022-11-17T03:57:35.083Z,986.55
2022-11-17T03:58:35.062Z,986.64
2022-11-17T03:59:35.042Z,986.59
2022-11-17T04:00:35.055Z,986.44
2022-11-17T04:01:35.064Z,986.48
2022-11-17T04:02:35.013Z,986.45
2022-11-17T04:03:35.310Z,986.51
2022-11-17T04:04:34.964Z,986.42
2022-11-17T04:05:35.004Z,986.44
2022-11-17T04:06:34.977Z,986.30
2022-11-17T04:07:34.992Z,986.33
2022-11-17T04:08:34.955Z,986.38
2022-11-17T04:09:34.919Z,986.37
2022-11-17T04:10:34.925Z,986.37
2022-11-17T04:11:34.884Z,986.38
2022-11-17T04:12:34.865Z,986.39
2022-11-17T04:13:35.269Z,986.37
2022-11-17T04:14:34.846Z,986.34
2022-11-17T04:15:34.826Z,986.30
2022-11-17T04:16:34.835Z,986.35
2022-11-17T04:17:34.816Z,986.29
2022-11-17T04:18:34.788Z,986.26
2022-11-17T04:19:34.778Z,986.29
2022-11-17T04:20:34.790Z,986.24
2022-11-17T04:21:34.779Z,986.32
2022-11-17T04:22:34.746Z,986.27
2022-11-17T04:23:34.924Z,986.35
2022-11-17T04:24:34.729Z,986.18
2022-11-17T04:25:34.690Z,986.36
2022-11-17T04:26:34.689Z,986.20
2022-11-17T04:27:34.689Z,986.15
2022-11-17T04:28:34.637Z,986.20
2022-11-17T04:29:34.624Z,986.22
2022-11-17T04:30:34.628Z,986.18
2022-11-17T04:31:34.609Z,986.19
2022-11-17T04:32:34.643Z,986.11
2022-11-17T04:33:34.860Z,986.03
2022-11-17T04:34:34.570Z,986.23
2022-11-17T04:35:34.565Z,986.18
2022-11-17T04:36:34.580Z,986.16
2022-11-17T04:37:34.541Z,986.12
2022-11-17T04:38:34.549Z,986.12
2022-11-17T04:39:34.531Z,986.07
2022-11-17T04:40:34.517Z,986.10
2022-11-17T04:41:34.483Z,986.12
2022-11-17T04:42:34.533Z,986.12
2022-11-17T04:43:34.824Z,986.10
2022-11-17T04:44:34.475Z,986.03
2022-11-17T04:45:34.467Z,986.03
2022-11-17T04:46:34.440Z,986.04
2022-11-17T04:47:34.444Z,986.07
2022-11-17T04:48:34.384Z,986.05
2022-11-17T04:49:34.376Z,986.04
2022-11-17T04:50:34.407Z,986.07
2022-11-17T04:51:34.348Z,986.05
2022-11-17T04:52:34.335Z,986.07
2022-11-17T04:53:34.685Z,986.03
2022-11-17T04:54:34.305Z,986.03
2022-11-17T04:55:34.282Z,985.98
2022-11-17T04:56:34.286Z,985.96
2022-11-17T04:57:34.258Z,985.96
2022-11-17T04:58:34.281Z,985.95
2022-11-17T04:59:34.274Z,985.96
2022-11-17T05:00:34.219Z,985.94
2022-11-17T05:01:34.206Z,985.93
2022-11-17T05:02:34.258Z,985.91
2022-11-17T05:03:34.509Z,985.94
2022-11-17T05:04:34.157Z,985.97
2022-11-17T05:05:34.149Z,985.96
2022-11-17T05:06:34.175Z,985.93
2022-11-17T05:07:34.218Z,986.00
2022-11-17T05:08:34.118Z,985.99
2022-11-17T05:09:34.106Z,985.91
2022-11-17T05:10:34.158Z,985.90
2022-11-17T05:11:34.090Z,985.88
2022-11-17T05:12:34.059Z,985.89
2022-11-17T05:13:34.342Z,985.95
2022-11-17T05:14:34.041Z,986.00
2022-11-17T05:15:34.011Z,985.98
2022-11-17T05:16:34.072Z,986.03
2022-11-17T05:17:33.971Z,985.95
2022-11-17T05:18:33.982Z,985.95
2022-11-17T05:19:33.961Z,985.95
2022-11-17T05:20:33.952Z,985.93
2022-11-17T05:21:33.930Z,985.92
2022-11-17T05:22:33.952Z,985.88
2022-11-17T05:23:34.107Z,985.86
2022-11-17T05:24:33.925Z,985.94
2022-11-17T05:25:33.875Z,985.87
2022-11-17T05:26:33.882Z,985.87
2022-11-17T05:27:33.860Z,985.87
2022-11-17T05:28:33.856Z,985.96
2022-11-17T05:29:33.854Z,985.89
2022-11-17T05:30:33.814Z,985.77
2022-11-17T05:31:33.815Z,986.00
2022-11-17T05:32:33.812Z,985.97
2022-11-17T05:33:37.787Z,986.14
2022-11-17T05:34:33.821Z,986.06
2022-11-17T05:35:33.786Z,986.01
2022-11-17T05:36:33.782Z,986.02
2022-11-17T05:37:33.718Z,986.07
2022-11-17T05:38:33.749Z,986.07
2022-11-17T05:39:33.766Z,986.12
2022-11-17T05:40:33.776Z,986.05
2022-11-17T05:41:33.803Z,985.94
2022-11-17T05:42:33.645Z,985.92
2022-11-17T05:43:33.990Z,985.90
2022-11-17T05:44:33.637Z,985.96
2022-11-17T05:45:33.643Z,985.91
2022-11-17T05:46:33.624Z,985.89
2022-11-17T05:47:33.589Z,985.82
2022-11-17T05:48:33.586Z,985.85
2022-11-17T05:49:33.624Z,985.76
2022-11-17T05:50:41.093Z,985.78
2022-11-17T05:51:33.533Z,985.88
2022-11-17T05:52:33.496Z,985.82
2022-11-17T05:53:33.858Z,985.86
2022-11-17T05:54:33.481Z,985.76
2022-11-17T05:55:33.514Z,985.75
2022-11-17T05:56:33.485Z,985.76
2022-11-17T05:57:33.514Z,985.76
2022-11-17T05:58:33.449Z,985.73
2022-11-17T05:59:33.418Z,985.74
2022-11-17T06:00:33.466Z,985.74
2022-11-17T06:01:33.400Z,985.68
2022-11-17T06:02:33.430Z,985.68
2022-11-17T06:03:33.684Z,985.64
2022-11-17T06:04:33.432Z,985.61
2022-11-17T06:05:33.335Z,985.57
2022-11-17T06:06:33.325Z,985.54
2022-11-17T06:07:33.354Z,985.64
2022-11-17T06:08:33.350Z,985.64
2022-11-17T06:09:33.287Z,985.50
2022-11-17T06:10:35.017Z,985.60
2022-11-17T06:11:33.460Z,985.54
2022-11-17T06:12:33.268Z,985.56
2022-11-17T06:13:33.642Z,985.60
2022-11-17T06:14:33.263Z,985.54
2022-11-17T06:15:33.234Z,985.52
2022-11-17T06:16:33.212Z,985.51
2022-11-17T06:17:33.192Z,985.52
2022-11-17T06:18:33.177Z,985.62
2022-11-17T06:19:33.173Z,985.75
2022-11-17T06:20:33.133Z,985.66
2022-11-17T06:21:49.333Z,985.66
2022-11-17T06:22:34.131Z,985.65
2022-11-17T06:23:33.408Z,985.69
2022-11-17T06:24:33.083Z,985.67
2022-11-17T06:25:33.053Z,985.81
2022-11-17T06:26:33.157Z,985.78
2022-11-17T06:27:33.024Z,985.86
2022-11-17T06:28:33.062Z,985.82
2022-11-17T06:29:33.027Z,985.76
2022-11-17T06:30:32.987Z,985.73
2022-11-17T06:31:33.005Z,985.75
2022-11-17T06:32:33.016Z,985.74
2022-11-17T06:33:33.230Z,985.75
2022-11-17T06:34:32.962Z,985.75
2022-11-17T06:35:32.943Z,985.76
2022-11-17T06:36:32.932Z,985.79
2022-11-17T06:37:32.911Z,985.76
2022-11-17T06:38:32.914Z,985.68
2022-11-17T06:39:32.888Z,985.73
2022-11-17T06:40:32.888Z,985.68
2022-11-17T06:41:32.859Z,985.66
2022-11-17T06:42:32.847Z,985.65
2022-11-17T06:43:33.056Z,985.70
2022-11-17T06:44:32.822Z,985.85
2022-11-17T06:45:32.995Z,985.83
2022-11-17T06:46:32.785Z,985.74
2022-11-17T06:47:32.802Z,985.77
2022-11-17T06:48:33.147Z,985.81
2022-11-17T06:49:32.751Z,985.82
2022-11-17T06:50:32.728Z,985.87
2022-11-17T06:51:32.784Z,985.85
2022-11-17T06:52:32.728Z,985.92
2022-11-17T06:53:32.976Z,985.90
2022-11-17T06:54:32.690Z,985.84
2022-11-17T06:55:32.722Z,985.91
2022-11-17T06:56:32.647Z,985.84
2022-11-17T06:57:32.655Z,985.89
2022-11-17T06:58:32.792Z,985.81
2022-11-17T06:59:32.603Z,985.86
2022-11-17T07:00:32.663Z,985.89
2022-11-17T07:01:32.572Z,985.83
2022-11-17T07:02:32.595Z,985.87
2022-11-17T07:04:56.881Z,985.86
2022-11-17T07:05:57.127Z,985.88
2022-11-17T07:06:56.510Z,985.91
2022-11-17T07:07:56.385Z,985.96
2022-11-17T07:08:56.362Z,985.96
2022-11-17T07:09:56.304Z,986.00
2022-11-17T07:10:57.015Z,986.01
2022-11-17T07:11:56.311Z,985.97
2022-11-17T07:12:56.291Z,986.00
2022-11-17T07:13:56.292Z,986.07
2022-11-17T07:14:56.241Z,986.04
2022-11-17T07:15:56.309Z,986.05
2022-11-17T07:16:56.221Z,986.07
2022-11-17T07:17:56.214Z,986.03
2022-11-17T07:18:56.331Z,986.04
2022-11-17T07:19:56.160Z,986.03
2022-11-17T07:20:56.180Z,986.02
2022-11-17T07:21:56.185Z,986.06
2022-11-17T07:22:56.239Z,986.03
2022-11-17T07:23:56.174Z,986.07
2022-11-17T07:24:56.149Z,986.04
2022-11-17T07:25:56.176Z,986.13
2022-11-17T07:26:57.310Z,986.09
2022-11-17T07:27:56.153Z,986.09
2022-11-17T07:28:56.062Z,986.08
2022-11-17T07:29:56.070Z,986.12
2022-11-17T07:30:56.079Z,986.08
2022-11-17T07:31:56.096Z,986.13
2022-11-17T07:32:55.973Z,986.18
2022-11-17T07:33:56.017Z,986.18
2022-11-17T07:34:56.001Z,986.17
2022-11-17T07:35:55.959Z,986.21
2022-11-17T07:36:55.934Z,986.31
2022-11-17T07:37:55.891Z,986.34
2022-11-17T07:38:55.940Z,986.36
2022-11-17T07:39:55.879Z,986.39
2022-11-17T07:40:55.900Z,986.34
2022-11-17T07:41:55.897Z,986.33
2022-11-17T07:42:55.842Z,986.36
2022-11-17T07:43:55.957Z,986.45
2022-11-17T07:44:55.884Z,986.41
2022-11-17T07:45:55.783Z,986.46
2022-11-17T07:48:03.523Z,986.44
2022-11-17T07:48:55.775Z,986.49
2022-11-17T07:49:55.767Z,986.50
2022-11-17T07:50:55.760Z,986.54
2022-11-17T07:51:55.735Z,986.56
2022-11-17T07:52:55.711Z,986.57
2022-11-17T07:53:55.694Z,986.59
2022-11-17T07:54:55.708Z,986.62
2022-11-17T07:55:55.741Z,986.65
2022-11-17T07:56:55.633Z,986.66
2022-11-17T07:57:55.639Z,986.66
2022-11-17T07:58:55.685Z,986.68
2022-11-17T07:59:55.607Z,986.72
2022-11-17T08:00:55.693Z,986.73
2022-11-17T08:01:55.599Z,986.78
2022-11-17T08:02:55.573Z,986.73
2022-11-17T08:03:55.644Z,986.76
2022-11-17T08:04:55.530Z,986.78
2022-11-17T08:05:55.516Z,986.81
2022-11-17T08:06:55.634Z,986.81
2022-11-17T08:07:55.559Z,986.81
2022-11-17T08:08:55.509Z,986.85
2022-11-17T08:09:55.512Z,986.80
2022-11-17T08:10:55.499Z,986.87
2022-11-17T08:11:55.509Z,986.88
2022-11-17T08:12:55.552Z,986.89
2022-11-17T08:13:55.427Z,986.94
2022-11-17T08:14:55.466Z,986.94
2022-11-17T08:15:55.450Z,986.92
2022-11-17T08:16:55.385Z,986.98
2022-11-17T08:17:55.594Z,986.91
2022-11-17T08:18:55.410Z,986.96
2022-11-17T08:19:55.354Z,986.94
2022-11-17T08:20:55.349Z,986.98
2022-11-17T08:21:55.373Z,986.98
2022-11-17T08:22:55.352Z,986.98
2022-11-17T08:23:55.290Z,987.04
2022-11-17T08:24:55.308Z,987.01
2022-11-17T08:25:55.307Z,987.03
2022-11-17T08:26:55.283Z,987.04
2022-11-17T08:27:55.274Z,987.06
2022-11-17T08:28:58.365Z,987.10
2022-11-17T08:29:55.262Z,987.09
2022-11-17T08:30:55.186Z,987.10
2022-11-17T08:31:55.187Z,987.08
2022-11-17T08:32:55.260Z,987.14
2022-11-17T08:33:55.141Z,987.11
2022-11-17T08:34:55.281Z,987.15
2022-11-17T08:35:55.094Z,987.14
2022-11-17T08:36:55.099Z,987.13
2022-11-17T08:37:55.083Z,987.13
2022-11-17T08:38:55.088Z,987.17
2022-11-17T08:39:55.780Z,987.18
2022-11-17T08:40:55.074Z,987.21
2022-11-17T08:41:55.065Z,987.24
2022-11-17T08:43:00.364Z,987.24
2022-11-17T08:43:56.024Z,987.20
2022-11-17T08:44:55.134Z,987.27
2022-11-17T08:45:54.935Z,987.28
2022-11-17T08:46:54.939Z,987.32
2022-11-17T08:47:55.023Z,987.30
2022-11-17T08:48:57.147Z,987.30
2022-11-17T08:49:54.897Z,987.35
2022-11-17T08:50:54.872Z,987.32
2022-11-17T08:51:54.926Z,987.35
2022-11-17T08:52:54.918Z,987.38
2022-11-17T08:53:54.856Z,987.42
2022-11-17T08:54:54.928Z,987.39
2022-11-17T08:55:54.963Z,987.40
2022-11-17T08:56:55.014Z,987.41
2022-11-17T08:57:54.830Z,987.49
2022-11-17T08:58:54.792Z,987.41
2022-11-17T08:59:54.771Z,987.41
2022-11-17T09:00:54.814Z,987.48
2022-11-17T09:01:54.726Z,987.42
2022-11-17T09:02:54.717Z,987.44
2022-11-17T09:03:54.691Z,987.47
2022-11-17T09:04:54.729Z,987.46
2022-11-17T09:05:54.692Z,987.45
2022-11-17T09:06:54.686Z,987.45
2022-11-17T09:07:54.834Z,987.49
2022-11-17T09:08:54.702Z,987.47
2022-11-17T09:09:54.692Z,987.52
2022-11-17T09:10:54.606Z,987.49
2022-11-17T09:11:54.618Z,987.49
2022-11-17T09:12:54.647Z,987.51
2022-11-17T09:13:54.658Z,987.52
2022-11-17T09:14:54.555Z,987.49
2022-11-17T09:15:54.560Z,987.44
2022-11-17T09:16:54.525Z,987.46
2022-11-17T09:17:54.524Z,987.44
2022-11-17T09:18:54.520Z,987.47
2022-11-17T09:19:54.491Z,987.50
2022-11-17T09:20:54.503Z,987.51
2022-11-17T09:21:54.483Z,987.54
2022-11-17T09:22:54.492Z,987.58
2022-11-17T09:23:54.467Z,987.56
2022-11-17T09:24:54.449Z,987.58
2022-11-17T09:25:54.525Z,987.58
2022-11-17T09:26:54.397Z,987.59
2022-11-17T09:27:54.394Z,987.59
2022-11-17T09:28:54.392Z,987.60
2022-11-17T09:29:54.344Z,987.59
2022-11-17T09:30:54.632Z,987.58
2022-11-17T09:31:54.407Z,987.61
2022-11-17T09:32:54.348Z,987.64
2022-11-17T09:33:54.419Z,987.66
2022-11-17T09:34:54.335Z,987.65
2022-11-17T09:35:54.256Z,987.66
2022-11-17T09:36:54.304Z,987.68
2022-11-17T09:37:54.269Z,987.70
2022-11-17T09:38:54.206Z,987.68
2022-11-17T09:39:54.257Z,987.68
2022-11-17T09:40:54.214Z,987.72
2022-11-17T09:41:54.190Z,987.74
2022-11-17T09:42:54.164Z,987.73
2022-11-17T09:43:54.253Z,987.76
2022-11-17T09:44:54.137Z,987.75
2022-11-17T09:45:54.126Z,987.76
2022-11-17T09:46:54.106Z,987.76
2022-11-17T09:48:06.979Z,987.80
2022-11-17T09:48:55.442Z,987.82
2022-11-17T09:49:58.712Z,987.83
2022-11-17T09:50:55.212Z,987.83
2022-11-17T09:51:54.077Z,987.87
2022-11-17T09:52:54.126Z,987.87
2022-11-17T09:53:54.027Z,987.88
2022-11-17T09:54:54.062Z,987.88
2022-11-17T09:55:54.009Z,987.89
2022-11-17T09:56:53.995Z,987.93
2022-11-17T09:57:53.999Z,987.89
2022-11-17T09:58:53.947Z,987.95
2022-11-17T09:59:53.970Z,987.87
2022-11-17T10:00:53.936Z,987.89
2022-11-17T10:01:54.086Z,987.94
2022-11-17T10:02:53.960Z,987.93
2022-11-17T10:03:53.858Z,987.87
2022-11-17T10:04:53.851Z,987.89
2022-11-17T10:05:53.926Z,987.92
2022-11-17T10:06:53.967Z,987.94
2022-11-17T10:07:53.829Z,987.97
2022-11-17T10:08:53.798Z,987.93
2022-11-17T10:09:53.797Z,987.93
2022-11-17T10:10:53.884Z,987.94
2022-11-17T10:11:53.861Z,987.98
2022-11-17T10:12:53.790Z,987.94
2022-11-17T10:13:53.739Z,988.01
2022-11-17T10:14:53.724Z,987.98
2022-11-17T10:15:53.752Z,987.99
2022-11-17T10:16:53.697Z,988.00
2022-11-17T10:17:53.958Z,988.00
2022-11-17T10:18:53.678Z,988.01
2022-11-17T10:19:53.677Z,987.98
2022-11-17T10:20:53.636Z,987.98
2022-11-17T10:21:53.602Z,987.97
2022-11-17T10:22:53.610Z,987.98
2022-11-17T10:23:54.112Z,988.04
2022-11-17T10:24:53.618Z,988.05
2022-11-17T10:25:53.603Z,988.13
2022-11-17T10:26:53.521Z,988.10
2022-11-17T10:27:53.553Z,988.10
2022-11-17T10:28:53.511Z,988.10
2022-11-17T10:29:53.541Z,988.13
2022-11-17T10:30:53.527Z,988.15
2022-11-17T10:31:53.505Z,988.15
2022-11-17T10:32:53.465Z,988.16
2022-11-17T10:33:53.470Z,988.15
2022-11-17T10:34:53.486Z,988.16
2022-11-17T10:35:53.400Z,988.12
2022-11-17T10:36:53.609Z,988.20
2022-11-17T10:37:53.355Z,988.17
2022-11-17T10:38:53.423Z,988.15
2022-11-17T10:39:53.337Z,988.11
2022-11-17T10:40:53.303Z,988.13
2022-11-17T10:41:53.373Z,988.16
2022-11-17T10:42:53.300Z,988.18
2022-11-17T10:43:53.309Z,988.22
2022-11-17T10:44:53.283Z,988.20
2022-11-17T10:45:53.259Z,988.19
2022-11-17T10:46:56.479Z,988.24
2022-11-17T10:47:54.244Z,988.14
2022-11-17T10:48:53.187Z,988.23
2022-11-17T10:49:53.335Z,988.15
2022-11-17T10:50:53.261Z,988.22
2022-11-17T10:51:53.246Z,988.20
2022-11-17T10:52:53.208Z,988.17
2022-11-17T10:53:53.159Z,988.24
2022-11-17T10:54:53.110Z,988.29
2022-11-17T10:55:53.135Z,988.24
2022-11-17T10:56:53.371Z,988.25
2022-11-17T10:57:53.061Z,988.25
2022-11-17T10:58:53.042Z,988.28
2022-11-17T10:59:56.923Z,988.29
2022-11-17T11:00:53.086Z,988.34
2022-11-17T11:01:53.111Z,988.38
2022-11-17T11:02:52.987Z,988.32
2022-11-17T11:03:52.987Z,988.28
2022-11-17T11:04:52.977Z,988.34
2022-11-17T11:05:53.015Z,988.40
2022-11-17T11:06:53.095Z,988.33
2022-11-17T11:07:52.923Z,988.35
2022-11-17T11:08:52.995Z,988.39
2022-11-17T11:09:52.890Z,988.38
2022-11-17T11:10:52.916Z,988.39
2022-11-17T11:11:52.899Z,988.41
2022-11-17T11:12:52.885Z,988.40
2022-11-17T11:13:52.872Z,988.47
2022-11-17T11:14:52.931Z,988.43
2022-11-17T11:15:52.893Z,988.41
2022-11-17T11:16:52.833Z,988.43
2022-11-17T11:17:52.827Z,988.39
2022-11-17T11:18:52.761Z,988.38
2022-11-17T11:19:52.851Z,988.32
2022-11-17T11:20:52.784Z,988.40
2022-11-17T11:21:52.803Z,988.44
2022-11-17T11:22:52.747Z,988.49
2022-11-17T11:23:52.751Z,988.48
2022-11-17T11:24:52.697Z,988.48
2022-11-17T11:25:52.718Z,988.49
2022-11-17T11:26:52.705Z,988.56
2022-11-17T11:27:52.673Z,988.50
2022-11-17T11:28:54.821Z,988.52
2022-11-17T11:29:52.677Z,988.55
2022-11-17T11:30:52.603Z,988.50
2022-11-17T11:31:52.579Z,988.50
2022-11-17T11:32:52.852Z,988.52
2022-11-17T11:33:52.743Z,988.57
2022-11-17T11:34:52.546Z,988.54
2022-11-17T11:35:52.558Z,988.52
2022-11-17T11:36:52.557Z,988.55
2022-11-17T11:37:52.547Z,988.57
2022-11-17T11:38:52.532Z,988.60
2022-11-17T11:39:52.468Z,988.63
2022-11-17T11:40:52.435Z,988.63
2022-11-17T11:41:52.486Z,988.61
2022-11-17T11:42:52.532Z,988.61
2022-11-17T11:43:52.418Z,988.66
2022-11-17T11:44:52.544Z,988.63
2022-11-17T11:45:52.504Z,988.62
2022-11-17T11:46:52.416Z,988.65
2022-11-17T11:47:52.470Z,988.68
2022-11-17T11:48:52.331Z,988.69
2022-11-17T11:49:52.303Z,988.71
2022-11-17T11:50:52.403Z,988.75
2022-11-17T11:51:52.298Z,988.73
2022-11-17T11:52:52.335Z,988.66
2022-11-17T11:53:52.321Z,988.68
2022-11-17T11:54:52.260Z,988.67
2022-11-17T11:55:52.258Z,988.74
2022-11-17T11:56:52.234Z,988.77
2022-11-17T11:57:52.276Z,988.73
2022-11-17T11:58:52.246Z,988.77
2022-11-17T11:59:52.205Z,988.76
2022-11-17T12:00:52.271Z,988.75
2022-11-17T12:02:01.428Z,988.80
2022-11-17T12:02:52.195Z,988.78
2022-11-17T12:04:00.876Z,988.83
2022-11-17T12:04:59.809Z,988.84
2022-11-17T12:05:52.088Z,988.91
2022-11-17T12:06:52.099Z,988.89
2022-11-17T12:07:52.040Z,988.96
2022-11-17T12:08:52.125Z,988.97
2022-11-17T12:09:52.048Z,988.93
2022-11-17T12:10:52.009Z,988.93
2022-11-17T12:11:51.990Z,988.93
2022-11-17T12:12:52.367Z,988.92
2022-11-17T12:13:54.283Z,988.91
2022-11-17T12:14:52.031Z,988.87
2022-11-17T12:15:52.210Z,988.93
2022-11-17T12:16:51.916Z,988.94
2022-11-17T12:17:51.935Z,988.92
2022-11-17T12:18:51.911Z,988.93
2022-11-17T12:19:51.891Z,988.93
2022-11-17T12:20:51.873Z,988.93
2022-11-17T12:21:51.859Z,988.93
2022-11-17T12:22:51.852Z,988.91
2022-11-17T12:23:51.836Z,988.90
2022-11-17T12:24:51.808Z,988.90
2022-11-17T12:25:54.201Z,988.89
2022-11-17T12:26:51.763Z,988.91
2022-11-17T12:27:51.750Z,988.87
2022-11-17T12:28:51.734Z,988.88
2022-11-17T12:29:51.744Z,988.88
2022-11-17T12:30:51.695Z,988.86
2022-11-17T12:31:51.699Z,988.89